createdAt,value
2019-01-09T00:01:31.111Z,7.40
2019-01-09T00:06:38.367Z,7.30
2019-01-09T00:11:44.607Z,7.40
2019-01-09T00:16:52.303Z,7.60
2019-01-09T00:21:59.886Z,7.60
2019-01-09T00:27:07.414Z,7.60
2019-01-09T00:32:17.018Z,7.50
2019-01-09T00:37:23.997Z,7.30
2019-01-09T00:42:31.736Z,7.20
2019-01-09T00:47:38.403Z,7.00
2019-01-09T00:52:44.834Z,7.00
2019-01-09T00:57:52.920Z,7.10
2019-01-09T01:03:48.438Z,6.90
2019-01-09T01:09:51.695Z,6.70
2019-01-09T01:15:42.317Z,6.80
2019-01-09T01:21:08.631Z,7.10
2019-01-09T01:26:27.348Z,7.00
2019-01-09T01:32:11.553Z,6.90
2019-01-09T01:37:43.939Z,6.70
2019-01-09T01:43:40.968Z,7.00
2019-01-09T01:49:12.079Z,6.90
2019-01-09T01:54:33.876Z,7.10
2019-01-09T01:59:47.603Z,6.90
2019-01-09T02:05:42.142Z,6.70
2019-01-09T02:11:32.260Z,6.80
2019-01-09T02:17:19.464Z,6.70
2019-01-09T02:23:08.990Z,6.90
2019-01-09T02:28:32.059Z,7.40
2019-01-09T02:33:38.708Z,7.30
2019-01-09T02:38:46.341Z,7.10
2019-01-09T02:43:53.520Z,7.30
2019-01-09T02:49:00.768Z,6.80
2019-01-09T02:54:08.327Z,6.70
2019-01-09T02:59:15.841Z,6.60
2019-01-09T03:04:23.498Z,6.50
2019-01-09T03:09:30.199Z,6.50
2019-01-09T03:14:37.183Z,6.40
2019-01-09T03:19:45.470Z,6.40
2019-01-09T03:24:51.699Z,6.40
2019-01-09T03:29:58.599Z,6.20
2019-01-09T03:35:06.426Z,6.20
2019-01-09T03:40:14.443Z,6.30
2019-01-09T03:45:22.036Z,6.50
2019-01-09T03:50:29.400Z,6.60
2019-01-09T03:55:37.181Z,6.60
2019-01-09T04:00:45.272Z,6.80
2019-01-09T04:05:53.531Z,7.30
2019-01-09T04:11:01.052Z,7.50
2019-01-09T04:16:07.978Z,7.30
2019-01-09T04:21:14.435Z,7.20
2019-01-09T04:26:21.070Z,7.10
2019-01-09T04:31:28.587Z,7.10
2019-01-09T04:36:34.447Z,7.00
2019-01-09T04:41:42.077Z,6.90
2019-01-09T04:46:49.236Z,6.70
2019-01-09T04:51:57.636Z,6.60
2019-01-09T04:57:04.237Z,6.50
2019-01-09T05:02:18.348Z,6.80
2019-01-09T05:07:26.296Z,6.70
2019-01-09T05:12:33.673Z,7.00
2019-01-09T05:17:42.490Z,6.90
2019-01-09T05:22:49.672Z,6.70
2019-01-09T05:27:58.290Z,6.50
2019-01-09T05:33:07.036Z,6.30
2019-01-09T05:38:12.912Z,6.30
2019-01-09T05:43:19.150Z,6.20
2019-01-09T05:48:26.215Z,6.20
2019-01-09T05:53:33.766Z,5.90
2019-01-09T05:58:41.544Z,5.70
2019-01-09T06:03:48.829Z,5.50
2019-01-09T06:08:54.999Z,5.70
2019-01-09T06:14:01.568Z,6.20
2019-01-09T06:19:08.932Z,6.70
2019-01-09T06:24:18.511Z,6.40
2019-01-09T06:29:24.611Z,6.30
2019-01-09T06:34:31.254Z,6.30
2019-01-09T06:39:40.444Z,6.30
2019-01-09T06:44:46.737Z,6.30
2019-01-09T06:49:55.303Z,6.50
2019-01-09T06:55:03.232Z,6.70
2019-01-09T07:00:11.346Z,6.80
2019-01-09T07:05:18.583Z,6.80
2019-01-09T07:10:25.855Z,6.70
2019-01-09T07:15:33.502Z,6.90
2019-01-09T07:20:41.405Z,7.30
2019-01-09T07:25:48.024Z,7.30
2019-01-09T07:30:54.083Z,7.40
2019-01-09T07:36:01.638Z,7.60
2019-01-09T07:41:10.011Z,7.60
2019-01-09T07:46:15.883Z,7.40
2019-01-09T07:51:24.905Z,7.40
2019-01-09T07:56:35.737Z,7.30
2019-01-09T08:01:43.347Z,7.50
2019-01-09T08:06:51.040Z,7.60
2019-01-09T08:11:58.627Z,7.80
2019-01-09T08:17:05.891Z,8.00
2019-01-09T08:22:14.497Z,8.10
2019-01-09T08:27:21.540Z,8.20
2019-01-09T08:32:28.061Z,8.40
2019-01-09T08:37:34.200Z,8.50
2019-01-09T08:42:41.549Z,8.60
2019-01-09T08:47:47.434Z,8.60
2019-01-09T08:52:56.338Z,8.80
2019-01-09T08:58:03.888Z,9.10
2019-01-09T09:03:12.639Z,9.20
2019-01-09T09:08:21.075Z,9.30
2019-01-09T09:13:35.693Z,9.20
2019-01-09T09:18:43.230Z,9.40
2019-01-09T09:23:50.811Z,9.40
2019-01-09T09:28:58.079Z,9.40
2019-01-09T09:34:04.217Z,9.70
2019-01-09T09:39:12.155Z,9.80
2019-01-09T09:44:19.960Z,10.10
2019-01-09T09:49:27.035Z,10.10
2019-01-09T09:54:33.707Z,10.40
2019-01-09T09:59:40.987Z,10.80
2019-01-09T10:04:48.508Z,10.70
2019-01-09T10:09:54.404Z,11.00
2019-01-09T10:15:02.044Z,11.40
2019-01-09T10:20:12.309Z,11.60
2019-01-09T10:25:20.128Z,11.80
2019-01-09T10:30:46.832Z,12.10
2019-01-09T10:35:54.821Z,12.50
2019-01-09T10:41:02.629Z,13.00
2019-01-09T10:46:09.029Z,13.80
2019-01-09T10:51:14.986Z,14.10
2019-01-09T10:56:21.446Z,14.50
2019-01-09T11:01:28.580Z,14.60
2019-01-09T11:06:35.554Z,14.90
2019-01-09T11:11:43.142Z,15.00
2019-01-09T11:16:50.079Z,15.00
2019-01-09T11:21:56.124Z,14.90
2019-01-09T11:27:04.869Z,15.10
2019-01-09T11:32:12.408Z,15.40
2019-01-09T11:37:19.227Z,15.40
2019-01-09T11:42:28.061Z,15.30
2019-01-09T11:47:34.838Z,15.40
2019-01-09T11:52:42.490Z,15.30
2019-01-09T11:57:50.044Z,15.80
2019-01-09T12:02:56.853Z,15.60
2019-01-09T12:08:03.546Z,15.60
2019-01-09T12:13:10.875Z,15.40
2019-01-09T12:18:18.465Z,15.70
2019-01-09T12:23:24.388Z,15.60
2019-01-09T12:28:31.963Z,15.30
2019-01-09T12:33:40.918Z,15.10
2019-01-09T12:38:47.911Z,14.90
2019-01-09T12:43:53.899Z,15.30
2019-01-09T12:49:01.449Z,15.60
2019-01-09T12:54:08.441Z,15.50
2019-01-09T12:59:21.587Z,15.70
2019-01-09T13:04:24.010Z,15.80
2019-01-09T13:09:31.640Z,15.50
2019-01-09T13:14:39.058Z,15.80
2019-01-09T13:19:46.438Z,16.00
2019-01-09T13:24:53.742Z,15.90
2019-01-09T13:30:01.599Z,16.00
2019-01-09T13:35:09.334Z,16.30
2019-01-09T13:40:19.075Z,16.20
2019-01-09T13:45:26.488Z,15.70
2019-01-09T13:50:33.647Z,16.20
2019-01-09T13:55:41.257Z,16.40
2019-01-09T14:00:47.508Z,16.60
2019-01-09T14:05:54.058Z,16.60
2019-01-09T14:11:01.691Z,17.00
2019-01-09T14:16:08.708Z,17.90
2019-01-09T14:21:16.042Z,18.30
2019-01-09T14:26:24.059Z,18.90
2019-01-09T14:31:31.642Z,19.40
2019-01-09T14:36:39.057Z,19.70
2019-01-09T14:41:46.843Z,19.10
2019-01-09T14:46:54.217Z,18.90
2019-01-09T14:52:00.287Z,19.30
2019-01-09T14:57:07.438Z,19.20
2019-01-09T15:02:15.309Z,19.10
2019-01-09T15:07:22.986Z,18.40
2019-01-09T15:12:28.891Z,18.60
2019-01-09T15:17:37.521Z,18.80
2019-01-09T15:22:43.740Z,18.30
2019-01-09T15:27:49.924Z,18.10
2019-01-09T15:32:55.892Z,17.90
2019-01-09T15:38:03.653Z,18.10
2019-01-09T15:43:09.845Z,18.00
2019-01-09T15:48:17.417Z,17.20
2019-01-09T15:53:23.822Z,17.10
2019-01-09T15:58:31.370Z,16.70
2019-01-09T16:03:38.329Z,16.20
2019-01-09T16:08:44.364Z,15.60
2019-01-09T16:13:51.704Z,14.80
2019-01-09T16:18:58.426Z,13.80
2019-01-09T16:24:04.761Z,13.40
2019-01-09T16:29:12.332Z,13.20
2019-01-09T16:34:19.980Z,12.90
2019-01-09T16:39:31.014Z,12.70
2019-01-09T16:44:36.396Z,12.60
2019-01-09T16:49:43.560Z,12.60
2019-01-09T16:54:51.341Z,12.50
2019-01-09T16:59:58.666Z,12.30
2019-01-09T17:05:05.610Z,12.10
2019-01-09T17:10:13.823Z,12.00
2019-01-09T17:15:23.996Z,11.90
2019-01-09T17:20:31.892Z,11.80
2019-01-09T17:25:37.859Z,11.70
2019-01-09T17:30:44.804Z,11.70
2019-01-09T17:35:51.591Z,11.70
2019-01-09T17:40:58.525Z,11.60
2019-01-09T17:46:05.016Z,11.70
2019-01-09T17:51:12.620Z,11.80
2019-01-09T17:56:19.636Z,11.50
2019-01-09T18:01:27.363Z,11.20
2019-01-09T18:06:33.811Z,11.60
2019-01-09T18:11:40.054Z,12.10
2019-01-09T18:16:47.201Z,12.70
2019-01-09T18:21:54.480Z,12.90
2019-01-09T18:27:02.473Z,12.90
2019-01-09T18:32:39.241Z,12.80
2019-01-09T18:38:19.215Z,12.80
2019-01-09T18:43:41.599Z,12.60
2019-01-09T18:49:28.437Z,12.60
2019-01-09T18:54:34.511Z,12.60
2019-01-09T18:59:41.008Z,12.60
2019-01-09T19:04:47.937Z,12.50
2019-01-09T19:09:54.251Z,12.50
2019-01-09T19:15:02.209Z,12.20
2019-01-09T19:20:10.182Z,11.60
2019-01-09T19:25:18.041Z,11.40
2019-01-09T19:30:30.849Z,11.10
2019-01-09T19:35:38.781Z,11.00
2019-01-09T19:40:46.309Z,10.90
2019-01-09T19:45:54.012Z,10.80
2019-01-09T19:51:01.297Z,10.80
2019-01-09T19:56:08.814Z,10.70
2019-01-09T20:01:14.836Z,10.60
2019-01-09T20:06:21.158Z,10.40
2019-01-09T20:11:27.236Z,10.30
2019-01-09T20:16:34.048Z,10.30
2019-01-09T20:21:41.773Z,10.10
2019-01-09T20:26:48.939Z,10.00
2019-01-09T20:31:54.964Z,10.00
2019-01-09T20:37:02.701Z,9.70
2019-01-09T20:42:09.529Z,9.70
2019-01-09T20:47:17.233Z,9.70
2019-01-09T20:52:23.556Z,9.60
2019-01-09T20:57:32.131Z,9.40
2019-01-09T21:02:39.904Z,9.30
2019-01-09T21:07:47.076Z,9.20
2019-01-09T21:12:54.150Z,9.00
2019-01-09T21:18:00.495Z,8.90
2019-01-09T21:23:07.715Z,8.90
2019-01-09T21:28:14.468Z,8.70
2019-01-09T21:33:22.414Z,8.60
2019-01-09T21:38:30.351Z,8.60
2019-01-09T21:43:36.376Z,8.80
2019-01-09T21:48:43.884Z,8.70
2019-01-09T21:53:51.717Z,8.80
2019-01-09T21:58:57.630Z,8.80
2019-01-09T22:04:07.764Z,8.60
2019-01-09T22:09:14.367Z,8.60
2019-01-09T22:14:21.951Z,8.70
2019-01-09T22:19:29.624Z,8.90
2019-01-09T22:24:37.282Z,9.00
2019-01-09T22:29:43.824Z,8.90
2019-01-09T22:34:51.251Z,8.80
2019-01-09T22:39:58.438Z,8.70
2019-01-09T22:45:06.247Z,8.60
2019-01-09T22:50:16.366Z,8.60
2019-01-09T22:55:23.856Z,8.60
2019-01-09T23:00:52.559Z,8.60
2019-01-09T23:05:59.848Z,8.70
2019-01-09T23:11:06.188Z,8.80
2019-01-09T23:16:13.737Z,8.70
2019-01-09T23:21:21.379Z,8.50
2019-01-09T23:26:28.775Z,8.50
2019-01-09T23:31:34.762Z,8.40
2019-01-09T23:36:42.460Z,8.50
2019-01-09T23:41:50.150Z,8.50
2019-01-09T23:46:57.121Z,8.50
2019-01-09T23:52:05.524Z,8.50
2019-01-09T23:57:13.435Z,8.50
